Time;durP1;ratioP1;P1;durP2;ratioP2;P2;SDS_P1;SDS_P2;PMS_P1;PMS_P2;Temp;Humidity;BMP_temperature;BMP_pressure;BME280_temperature;BME280_humidity;BME280_pressure;Samples;Min_cycle;Max_cycle;Signal;HPM_P1;HPM_P2
2021/12/17 00:02:09;;;;;;;23.70;7.60;;;;;;;4.24;82.24;101652.08;84190;1341;22741;-68
2021/12/17 00:04:24;;;;;;;22.10;8.50;;;;;;;4.19;82.23;101649.10;84171;1341;23980;-68
2021/12/17 00:06:47;;;;;;;23.10;5.10;;;;;;;4.14;82.03;101647.52;84233;1338;22877;-74
2021/12/17 00:08:57;;;;;;;14.80;5.60;;;;;;;4.15;82.15;101639.40;84201;1338;22607;-76
2021/12/17 00:11:05;;;;;;;14.30;5.90;;;;;;;4.14;82.15;101642.33;84215;1337;24265;-77
2021/12/17 00:13:14;;;;;;;19.10;7.80;;;;;;;4.16;82.38;101640.27;84180;1340;22619;-75
2021/12/17 00:15:21;;;;;;;20.50;6.30;;;;;;;4.16;82.21;101640.10;84192;1338;22590;-76
2021/12/17 00:17:32;;;;;;;21.30;7.20;;;;;;;4.18;82.38;101637.35;84143;1338;22764;-76
2021/12/17 00:19:57;;;;;;;21.60;6.70;;;;;;;4.18;82.15;101634.41;84206;1337;22628;-76
2021/12/17 00:48:23;;;;;;;15.60;5.30;;;;;;;4.02;82.09;101656.89;84231;1337;22575;-74
2021/12/17 00:49:01;;;;;;;23.00;6.10;;;;;;;3.99;82.09;101653.41;84218;1338;24296;-76
2021/12/17 00:53:40;;;;;;;22.50;6.30;;;;;;;4.00;82.27;101653.95;84192;1337;23068;-77
2021/12/17 00:55:50;;;;;;;22.60;6.70;;;;;;;4.01;82.21;101653.27;84231;1338;22732;-77
2021/12/17 00:58:00;;;;;;;24.20;6.70;;;;;;;4.00;82.11;101649.29;84197;1337;22603;-68
2021/12/17 01:00:09;;;;;;;26.80;8.60;;;;;;;3.98;82.32;101645.27;83358;1341;1002952;-68
2021/12/17 01:02:17;;;;;;;23.30;7.20;;;;;;;3.97;82.32;101646.14;84095;1340;24175;-76
2021/12/17 01:04:24;;;;;;;12.20;5.60;;;;;;;3.97;82.28;101643.38;84224;1337;22612;-76
2021/12/17 01:06:34;;;;;;;14.70;4.40;;;;;;;3.96;82.24;101643.55;84202;1337;22676;-68
2021/12/17 01:08:43;;;;;;;22.50;6.00;;;;;;;3.96;82.23;101641.98;84219;1341;22589;-69
2021/12/17 01:10:52;;;;;;;16.50;5.20;;;;;;;3.96;82.25;101640.79;84207;1337;22697;-68
2021/12/17 01:13:02;;;;;;;23.50;6.40;;;;;;;3.96;82.19;101645.27;84210;1341;22632;-77
2021/12/17 01:15:10;;;;;;;21.20;5.90;;;;;;;3.96;82.22;101649.75;84186;1337;22622;-74
2021/12/17 01:17:21;;;;;;;21.90;7.10;;;;;;;3.94;82.16;101650.77;83538;1338;1003156;-77
2021/12/17 01:19:45;;;;;;;17.90;6.00;;;;;;;3.90;82.20;101645.23;84092;1341;22851;-76
2021/12/17 01:22:13;;;;;;;18.30;5.10;;;;;;;3.90;82.40;101646.23;84206;1337;24073;-76
2021/12/17 01:24:35;;;;;;;17.30;5.10;;;;;;;3.89;82.20;101646.58;84214;1338;22597;-76
2021/12/17 01:36:18;;;;;;;27.20;6.20;;;;;;;3.98;82.43;101650.80;84193;1342;23964;-69
2021/12/17 01:41:13;;;;;;;18.10;5.20;;;;;;;3.96;82.42;101652.34;83768;1344;22613;-68
2021/12/17 01:43:21;;;;;;;20.90;5.40;;;;;;;3.96;82.35;101656.66;83984;1338;25638;-68
2021/12/17 01:45:35;;;;;;;18.90;6.40;;;;;;;3.98;82.42;101658.22;84198;1338;22736;-68
2021/12/17 01:47:42;;;;;;;21.70;5.80;;;;;;;4.01;82.21;101656.02;84213;1337;24356;-77
2021/12/17 01:59:39;;;;;;;23.00;5.90;;;;;;;3.97;82.09;101644.41;83493;1338;1002945;-77
2021/12/17 02:01:46;;;;;;;21.30;5.70;;;;;;;3.93;82.18;101644.73;84209;1338;22731;-68
2021/12/17 02:03:56;;;;;;;18.80;6.00;;;;;;;3.92;82.31;101645.05;84220;1338;22755;-69
2021/12/17 02:06:06;;;;;;;18.30;5.60;;;;;;;3.92;82.08;101640.39;84189;1338;24257;-69
2021/12/17 02:08:12;;;;;;;15.90;5.30;;;;;;;3.93;82.28;101638.15;84181;1338;25531;-76
2021/12/17 02:10:56;;;;;;;20.60;6.30;;;;;;;3.95;82.30;101630.24;84198;1337;25440;-76
2021/12/17 02:19:26;;;;;;;17.40;5.60;;;;;;;3.95;82.34;101627.99;84230;1337;22602;-69
2021/12/17 02:20:47;;;;;;;23.70;5.60;;;;;;;3.91;82.25;101626.58;84188;1337;22825;-68
2021/12/17 02:32:25;;;;;;;20.60;5.80;;;;;;;3.95;82.56;101620.92;84177;1341;22765;-68
2021/12/17 02:34:49;;;;;;;18.70;5.80;;;;;;;3.93;82.33;101614.52;84203;1337;24380;-68
2021/12/17 02:36:58;;;;;;;22.40;5.00;;;;;;;3.90;82.25;101607.91;84198;1338;24019;-69
2021/12/17 02:39:29;;;;;;;16.50;5.20;;;;;;;3.90;82.32;101608.45;84122;1334;25326;-68
2021/12/17 02:46:27;;;;;;;26.10;5.70;;;;;;;3.85;82.31;101599.77;84185;1329;22610;-76
2021/12/17 02:48:34;;;;;;;13.60;4.80;;;;;;;3.86;82.30;101604.44;84115;1338;22651;-76
2021/12/17 02:50:43;;;;;;;20.90;6.10;;;;;;;3.85;82.33;101604.61;84225;1337;22610;-75
2021/12/17 02:52:53;;;;;;;20.80;4.80;;;;;;;3.83;82.17;101603.19;84201;1338;22874;-68
2021/12/17 02:55:00;;;;;;;22.60;5.40;;;;;;;3.81;82.29;101599.55;84096;1339;22878;-69
2021/12/17 02:57:07;;;;;;;21.10;6.20;;;;;;;3.80;82.22;101603.52;84206;1339;22649;-69
2021/12/17 02:59:17;;;;;;;22.00;5.00;;;;;;;3.78;82.41;101604.88;84198;1338;22833;-69
2021/12/17 03:01:23;;;;;;;15.70;6.00;;;;;;;3.79;82.47;101607.14;84253;1337;22617;-75
2021/12/17 03:03:31;;;;;;;22.80;6.20;;;;;;;3.80;82.67;101610.25;84233;1337;22658;-77
2021/12/17 03:05:42;;;;;;;27.90;6.30;;;;;;;3.82;82.57;101611.30;84192;1338;22670;-78
2021/12/17 03:07:48;;;;;;;20.40;5.50;;;;;;;3.82;82.58;101608.19;84194;1337;25274;-69
2021/12/17 03:10:03;;;;;;;28.90;6.00;;;;;;;3.83;82.64;101606.13;84210;1341;22606;-69
2021/12/17 03:12:15;;;;;;;19.50;5.50;;;;;;;3.83;82.64;101605.45;84233;1338;22610;-69
2021/12/17 03:14:22;;;;;;;18.70;5.00;;;;;;;3.81;82.55;101604.04;84187;1338;22619;-69
2021/12/17 03:16:36;;;;;;;18.40;4.70;;;;;;;3.79;82.34;101603.34;84167;1337;22647;-75
2021/12/17 03:19:00;;;;;;;22.40;5.80;;;;;;;3.77;82.26;101599.69;84202;1337;22779;-77
2021/12/17 03:23:32;;;;;;;21.40;6.30;;;;;;;3.80;82.40;101596.96;84201;1338;24389;-67
2021/12/17 03:25:39;;;;;;;17.80;4.90;;;;;;;3.81;82.44;101593.17;84198;1337;22966;-68
2021/12/17 03:27:45;;;;;;;17.10;5.50;;;;;;;3.80;82.58;101592.13;84206;1337;23951;-76
2021/12/17 03:29:52;;;;;;;26.10;5.50;;;;;;;3.82;82.57;101591.11;84213;1338;22599;-77
2021/12/17 03:32:01;;;;;;;21.80;5.10;;;;;;;3.81;82.37;101589.02;84186;1336;22645;-67
2021/12/17 03:36:35;;;;;;;18.30;5.30;;;;;;;3.76;82.40;101574.66;84178;1341;24201;-68
2021/12/17 03:38:41;;;;;;;16.40;5.50;;;;;;;3.76;82.33;101575.52;84217;1337;23085;-69
2021/12/17 03:40:52;;;;;;;15.50;4.90;;;;;;;3.77;82.51;101579.31;84192;1337;22609;-69
2021/12/17 03:43:02;;;;;;;21.60;4.40;;;;;;;3.80;82.32;101579.02;84238;1341;22616;-77
2021/12/17 03:45:12;;;;;;;18.70;5.40;;;;;;;3.81;82.25;101579.88;84220;1334;22642;-77
2021/12/17 03:47:19;;;;;;;21.40;5.20;;;;;;;3.80;82.19;101581.77;84115;1339;22638;-75
2021/12/17 03:49:28;;;;;;;21.70;5.80;;;;;;;3.79;82.18;101580.54;84206;1338;25508;-77
2021/12/17 03:51:47;;;;;;;13.50;4.20;;;;;;;3.78;82.36;101574.84;84190;1338;22730;-77
2021/12/17 03:53:59;;;;;;;18.00;4.50;;;;;;;3.77;82.52;101575.17;84221;1341;23963;-76
2021/12/17 03:56:06;;;;;;;12.80;4.70;;;;;;;3.75;82.30;101574.63;84205;1337;22771;-75
2021/12/17 03:58:13;;;;;;;17.40;4.30;;;;;;;3.74;82.19;101564.62;84129;1337;22612;-76
2021/12/17 04:00:22;;;;;;;20.30;5.50;;;;;;;3.73;82.25;101567.36;84197;1337;22628;-76
2021/12/17 04:02:29;;;;;;;18.00;4.20;;;;;;;3.74;82.13;101567.39;84222;1338;22700;-68
2021/12/17 04:04:35;;;;;;;16.00;5.90;;;;;;;3.74;82.21;101571.51;84228;1337;22672;-70
2021/12/17 04:06:44;;;;;;;19.90;5.20;;;;;;;3.74;82.34;101566.53;84200;1337;23927;-68
2021/12/17 04:08:55;;;;;;;18.00;4.70;;;;;;;3.73;82.32;101563.23;84193;1337;22589;-70
2021/12/17 04:11:06;;;;;;;21.40;7.30;;;;;;;3.71;82.43;101560.45;84206;1338;24135;-68
2021/12/17 04:13:28;;;;;;;15.90;4.70;;;;;;;3.67;81.95;101558.34;84224;1340;22879;-76
2021/12/17 04:15:37;;;;;;;22.70;4.10;;;;;;;3.67;82.30;101556.97;84231;1339;25481;-78
2021/12/17 04:17:47;;;;;;;15.90;3.80;;;;;;;3.67;82.28;101553.86;84211;1337;22642;-76
2021/12/17 04:19:53;;;;;;;14.30;4.50;;;;;;;3.68;82.25;101550.92;84093;1338;24179;-76
2021/12/17 04:22:04;;;;;;;18.40;4.90;;;;;;;3.67;82.19;101553.69;84199;1338;22600;-70
2021/12/17 04:24:10;;;;;;;15.40;5.20;;;;;;;3.68;82.36;101559.73;84233;1338;22627;-69
2021/12/17 04:26:17;;;;;;;16.00;5.20;;;;;;;3.66;82.20;101561.45;84206;1337;23263;-74
2021/12/17 04:28:24;;;;;;;19.00;4.30;;;;;;;3.67;82.18;101564.38;84225;1338;25479;-75
2021/12/17 04:30:32;;;;;;;18.20;4.10;;;;;;;3.66;82.33;101565.06;84198;1342;22903;-75
2021/12/17 04:32:39;;;;;;;26.00;4.60;;;;;;;3.65;82.19;101566.79;84107;1338;23935;-77
2021/12/17 04:34:45;;;;;;;27.70;5.30;;;;;;;3.66;82.27;101568.52;84205;1337;22603;-77
2021/12/17 04:36:55;;;;;;;13.30;3.60;;;;;;;3.64;82.19;101567.47;84224;1337;24059;-76
2021/12/17 04:39:01;;;;;;;19.00;6.20;;;;;;;3.65;82.25;101564.73;84212;1337;25631;-76
2021/12/17 04:43:57;;;;;;;20.10;5.00;;;;;;;3.68;81.92;101568.02;82050;1369;545639;-77
2021/12/17 04:46:17;;;;;;;14.10;4.20;;;;;;;3.63;82.01;101572.80;84307;1338;22893;-78
2021/12/17 04:58:09;;;;;;;14.30;4.80;;;;;;;3.62;82.05;101581.77;84184;1336;308299;-68
2021/12/17 05:00:19;;;;;;;19.20;3.60;;;;;;;3.61;81.89;101578.31;84436;1337;22843;-68
2021/12/17 05:02:26;;;;;;;17.90;5.00;;;;;;;3.59;82.13;101576.39;84391;1339;22606;-77
2021/12/17 05:04:33;;;;;;;16.20;5.00;;;;;;;3.57;81.97;101577.40;84431;1336;22599;-76
2021/12/17 05:06:42;;;;;;;12.80;3.30;;;;;;;3.55;82.09;101586.55;84460;1335;22622;-77
2021/12/17 05:08:56;;;;;;;15.00;4.50;;;;;;;3.53;81.94;101589.61;84349;1339;25065;-76
2021/12/17 05:11:26;;;;;;;16.20;5.80;;;;;;;3.51;82.08;101591.67;84419;1339;22626;-77
2021/12/17 05:18:24;;;;;;;17.00;4.10;;;;;;;3.47;82.16;101611.45;84427;1339;23895;-71
2021/12/17 05:20:32;;;;;;;14.70;4.50;;;;;;;3.48;82.26;101609.39;84571;1331;22619;-68
2021/12/17 05:22:43;;;;;;;18.40;5.30;;;;;;;3.50;82.34;101607.68;84544;1336;22621;-68
2021/12/17 05:24:49;;;;;;;20.90;5.00;;;;;;;3.50;82.13;101608.91;84570;1336;22602;-69
2021/12/17 05:26:56;;;;;;;19.10;4.90;;;;;;;3.49;82.15;101608.89;84578;1332;24820;-76
2021/12/17 05:29:03;;;;;;;20.10;4.50;;;;;;;3.48;82.40;101609.90;84562;1332;22604;-77
2021/12/17 05:31:10;;;;;;;17.90;5.90;;;;;;;3.47;82.21;101608.70;84563;1335;22757;-76
2021/12/17 05:33:21;;;;;;;19.10;4.10;;;;;;;3.45;82.36;101611.61;84552;1334;22651;-69
2021/12/17 05:35:31;;;;;;;13.80;4.30;;;;;;;3.45;82.31;101610.05;84544;1336;24138;-69
2021/12/17 05:37:38;;;;;;;13.80;4.10;;;;;;;3.46;82.34;101614.38;84577;1336;22613;-77
2021/12/17 05:39:47;;;;;;;14.70;3.90;;;;;;;3.46;82.16;101612.83;84569;1336;22604;-77
2021/12/17 05:41:54;;;;;;;18.50;5.30;;;;;;;3.47;82.34;101611.63;84485;1335;22748;-69
2021/12/17 05:44:01;;;;;;;16.70;5.60;;;;;;;3.48;82.24;101609.39;84487;1334;24004;-69
2021/12/17 05:46:13;;;;;;;19.30;5.50;;;;;;;3.47;82.22;101603.35;84562;1336;25433;-70
2021/12/17 05:48:22;;;;;;;20.60;6.50;;;;;;;3.47;82.57;101601.79;84570;1332;22872;-76
2021/12/17 05:50:29;;;;;;;16.60;5.90;;;;;;;3.47;82.14;101594.38;84562;1335;24375;-76
2021/12/17 05:52:36;;;;;;;24.90;6.50;;;;;;;3.44;82.29;101585.37;84561;1331;22618;-68
2021/12/17 05:54:46;;;;;;;15.30;4.30;;;;;;;3.42;82.12;101582.41;84547;1336;22896;-68
2021/12/17 05:56:55;;;;;;;17.00;5.30;;;;;;;3.40;82.06;101578.94;84495;1334;25620;-76
2021/12/17 05:59:05;;;;;;;13.90;4.10;;;;;;;3.41;82.08;101572.41;84536;1336;22937;-77
2021/12/17 06:01:13;;;;;;;14.60;3.60;;;;;;;3.42;82.08;101576.90;84558;1326;22603;-77
2021/12/17 06:03:20;;;;;;;13.60;4.70;;;;;;;3.43;82.27;101576.56;84558;1336;22619;-76
2021/12/17 06:05:27;;;;;;;19.70;7.10;;;;;;;3.43;82.31;101579.15;84552;1335;23578;-76
2021/12/17 06:07:33;;;;;;;16.70;4.50;;;;;;;3.42;82.30;101583.63;84606;1336;23981;-69
2021/12/17 06:09:40;;;;;;;14.50;4.10;;;;;;;3.41;82.10;101591.02;84478;1335;22603;-68
2021/12/17 06:11:50;;;;;;;18.50;4.90;;;;;;;3.39;82.22;101594.80;84588;1333;23009;-76
2021/12/17 06:14:00;;;;;;;17.90;4.20;;;;;;;3.38;82.20;101595.48;84567;1329;22607;-76
2021/12/17 06:16:09;;;;;;;12.00;3.70;;;;;;;3.37;81.99;101595.65;84563;1336;24185;-76
2021/12/17 06:18:17;;;;;;;18.50;5.10;;;;;;;3.39;82.20;101605.15;84555;1336;23930;-69
2021/12/17 06:20:25;;;;;;;17.10;4.70;;;;;;;3.38;82.27;101606.87;84549;1336;25306;-69
2021/12/17 06:22:35;;;;;;;16.40;4.10;;;;;;;3.39;82.22;101604.29;84585;1335;24172;-76
2021/12/17 06:24:44;;;;;;;17.60;4.40;;;;;;;3.38;82.00;101602.73;84844;1325;22608;-76
2021/12/17 06:26:54;;;;;;;22.60;5.40;;;;;;;3.35;82.09;101602.70;84859;1327;22613;-68
2021/12/17 06:29:02;;;;;;;;;;;;;;;3.33;82.21;101607.85;84881;1325;25593;-68
2021/12/17 06:31:10;;;;;;;25.80;6.70;;;;;;;3.31;82.23;101611.11;84857;1328;22592;-69
2021/12/17 06:33:17;;;;;;;20.40;5.60;;;;;;;3.30;82.23;101609.72;84853;1325;22596;-69
2021/12/17 06:35:23;;;;;;;20.00;5.10;;;;;;;3.28;82.12;101605.73;84853;1324;22616;-69
2021/12/17 06:37:30;;;;;;;12.70;4.40;;;;;;;3.29;82.10;101604.34;84799;1327;22611;-71
2021/12/17 06:39:37;;;;;;;14.60;5.20;;;;;;;3.29;82.10;101602.10;84840;1324;24353;-70
2021/12/17 06:41:43;;;;;;;19.90;6.40;;;;;;;3.27;82.06;101597.44;84843;1325;22800;-69
2021/12/17 06:43:50;;;;;;;16.70;5.30;;;;;;;3.28;82.30;101596.75;84866;1318;22873;-71
2021/12/17 06:46:13;;;;;;;18.00;4.90;;;;;;;3.29;82.36;101594.69;84852;1324;25161;-71
2021/12/17 06:48:25;;;;;;;19.30;5.00;;;;;;;3.29;82.30;101586.58;84865;1324;24277;-70
2021/12/17 06:55:43;;;;;;;19.10;5.20;;;;;;;3.30;82.43;101578.16;84858;1325;22583;-69
2021/12/17 07:00:23;;;;;;;46.40;20.10;;;;;;;3.33;82.25;101578.88;84819;1323;22654;-75
2021/12/17 07:10:15;;;;;;;18.50;5.90;;;;;;;3.30;82.15;101600.91;84849;1322;22572;-75
2021/12/17 07:17:24;;;;;;;16.80;5.10;;;;;;;3.32;82.17;101607.15;84824;1326;24333;-75
2021/12/17 07:21:59;;;;;;;25.00;5.30;;;;;;;3.31;82.19;101609.56;84589;1334;22721;-74
2021/12/17 07:34:02;;;;;;;18.80;5.60;;;;;;;3.36;82.42;101632.38;84762;1327;22594;-69
2021/12/17 07:36:14;;;;;;;;;;;;;;;3.36;82.17;101635.48;84849;1327;22799;-70
2021/12/17 07:38:39;;;;;;;16.80;5.20;;;;;;;3.35;82.17;101633.41;84873;1319;23136;-74
2021/12/17 07:40:49;;;;;;;23.30;5.80;;;;;;;3.34;82.33;101634.58;84797;1327;22628;-74
2021/12/17 07:42:55;;;;;;;19.80;5.60;;;;;;;3.34;82.23;101639.58;84879;1326;22615;-74
2021/12/17 07:45:02;;;;;;;19.70;6.40;;;;;;;3.33;82.29;101641.82;84797;1327;22658;-76
2021/12/17 07:47:13;;;;;;;14.20;5.00;;;;;;;3.32;82.24;101638.88;84826;1326;25294;-69
2021/12/17 07:49:22;;;;;;;15.40;4.90;;;;;;;3.32;82.31;101641.64;84838;1324;22592;-69
2021/12/17 07:51:28;;;;;;;23.90;6.00;;;;;;;3.32;82.18;101641.81;84115;1324;1003743;-69
2021/12/17 07:53:39;;;;;;;11.90;4.70;;;;;;;3.34;82.24;101643.21;84871;1324;22853;-69
2021/12/17 07:55:44;;;;;;;;;;;;;;;3.35;82.16;101650.66;84881;1325;24351;-71
2021/12/17 07:57:50;;;;;;;15.30;5.40;;;;;;;3.36;82.24;101658.60;84871;1326;24997;-75
2021/12/17 07:59:57;;;;;;;15.60;5.00;;;;;;;3.41;82.47;101665.38;84874;1327;22599;-77
2021/12/17 08:02:04;;;;;;;15.00;4.90;;;;;;;3.43;82.44;101670.40;84852;1325;22584;-70
2021/12/17 08:04:11;;;;;;;14.40;5.80;;;;;;;3.45;82.38;101676.11;84830;1329;22642;-70
2021/12/17 08:06:18;;;;;;;16.60;5.40;;;;;;;3.47;82.43;101678.57;84866;1324;22667;-74
2021/12/17 08:08:25;;;;;;;26.90;6.80;;;;;;;3.48;82.23;101676.85;84785;1326;22608;-70
2021/12/17 08:10:32;;;;;;;18.20;5.20;;;;;;;3.47;82.14;101681.33;84124;1327;1003178;-70
2021/12/17 08:12:41;;;;;;;18.60;5.00;;;;;;;3.47;82.30;101684.95;84860;1325;22585;-76
2021/12/17 08:14:50;;;;;;;22.40;5.90;;;;;;;3.44;82.13;101688.70;84869;1326;24374;-77
2021/12/17 08:17:05;;;;;;;19.30;5.20;;;;;;;3.43;82.04;101690.92;84888;1323;22585;-71
2021/12/17 08:26:52;;;;;;;;;;;;;;;3.43;82.00;101689.38;84541;1333;22732;-76
2021/12/17 08:29:24;;;;;;;24.00;6.40;;;;;;;3.41;82.02;101694.54;84531;1333;22868;-77
2021/12/17 08:31:34;;;;;;;20.60;5.80;;;;;;;3.42;82.29;101695.92;84859;1323;22624;-78
2021/12/17 08:33:41;;;;;;;17.20;5.40;;;;;;;3.41;82.19;101704.02;84828;1323;22636;-77
2021/12/17 08:35:47;;;;;;;16.80;5.80;;;;;;;3.40;82.30;101699.52;84789;1328;22574;-76
2021/12/17 08:37:58;;;;;;;14.00;6.00;;;;;;;3.42;82.25;101704.73;84871;1324;22592;-76
2021/12/17 08:40:05;;;;;;;9.60;4.70;;;;;;;3.44;82.08;101710.09;84877;1328;22791;-76
2021/12/17 08:42:12;;;;;;;15.70;5.50;;;;;;;3.46;82.03;101713.40;84845;1325;22719;-77
2021/12/17 08:44:18;;;;;;;18.00;6.00;;;;;;;3.48;82.17;101706.17;84845;1325;22584;-76
2021/12/17 08:46:25;;;;;;;15.40;5.60;;;;;;;3.51;82.32;101706.73;84847;1324;24309;-76
2021/12/17 08:48:31;;;;;;;20.60;6.60;;;;;;;3.51;82.17;101702.77;84851;1326;25891;-76
2021/12/17 08:50:38;;;;;;;18.90;7.10;;;;;;;3.49;81.85;101701.53;84843;1325;22863;-77
2021/12/17 08:52:48;;;;;;;24.90;8.10;;;;;;;3.45;81.82;101703.91;84869;1322;22589;-68
2021/12/17 08:54:55;;;;;;;20.70;7.70;;;;;;;3.44;81.80;101700.08;84843;1328;22706;-69
2021/12/17 08:57:02;;;;;;;19.00;7.90;;;;;;;3.48;82.23;101697.20;84832;1325;22770;-68
2021/12/17 08:59:13;;;;;;;13.60;6.70;;;;;;;3.53;82.07;101688.98;84834;1322;24328;-69
2021/12/17 09:01:20;;;;;;;17.30;6.10;;;;;;;3.56;81.91;101680.23;84865;1328;22815;-76
2021/12/17 09:03:26;;;;;;;16.00;6.40;;;;;;;3.57;81.97;101679.72;84873;1325;24248;-77
2021/12/17 09:05:35;;;;;;;13.60;6.70;;;;;;;3.61;82.00;101680.80;84872;1325;25349;-77
2021/12/17 09:07:42;;;;;;;24.20;6.50;;;;;;;3.66;82.25;101674.47;84831;1325;23901;-77
2021/12/17 09:09:48;;;;;;;17.20;6.10;;;;;;;3.69;82.08;101674.68;84839;1325;22610;-77
2021/12/17 09:11:55;;;;;;;18.10;6.40;;;;;;;3.71;82.02;101667.29;84871;1327;22590;-68
2021/12/17 09:14:02;;;;;;;20.80;6.20;;;;;;;3.76;82.04;101670.10;84867;1324;22585;-68
2021/12/17 09:16:12;;;;;;;18.00;6.20;;;;;;;3.79;81.92;101674.80;84862;1325;22583;-68
2021/12/17 09:18:22;;;;;;;14.80;7.10;;;;;;;3.83;81.65;101676.38;84851;1325;22961;-69
2021/12/17 09:20:31;;;;;;;19.50;7.60;;;;;;;3.86;81.78;101671.93;84854;1324;22579;-69
2021/12/17 09:22:41;;;;;;;15.10;6.70;;;;;;;3.90;81.79;101669.39;84870;1324;22564;-76
2021/12/17 09:24:50;;;;;;;21.60;7.30;;;;;;;3.92;81.70;101669.91;84842;1326;22606;-77
2021/12/17 09:26:57;;;;;;;16.30;6.90;;;;;;;3.96;81.94;101665.64;84846;1328;22904;-78
2021/12/17 09:29:06;;;;;;;15.60;6.30;;;;;;;3.95;81.46;101658.73;84870;1320;22621;-75
2021/12/17 09:31:16;;;;;;;22.40;8.40;;;;;;;3.96;81.72;101657.19;84879;1327;23926;-76
2021/12/17 09:33:25;;;;;;;19.00;6.40;;;;;;;3.97;81.37;101658.22;84845;1327;22721;-76
2021/12/17 09:35:35;;;;;;;20.30;7.50;;;;;;;3.99;81.20;101653.94;84857;1320;25564;-76
2021/12/17 09:37:41;;;;;;;18.90;6.80;;;;;;;4.02;81.31;101651.36;84843;1325;22619;-74
2021/12/17 09:39:48;;;;;;;21.30;7.00;;;;;;;4.07;81.32;101652.61;84850;1327;22616;-75
2021/12/17 09:41:55;;;;;;;20.70;7.70;;;;;;;4.13;81.25;101657.85;84844;1328;22612;-76
2021/12/17 09:44:02;;;;;;;16.20;6.20;;;;;;;4.16;81.12;101656.50;84807;1325;22935;-75
2021/12/17 09:46:15;;;;;;;25.40;9.30;;;;;;;4.20;81.02;101651.18;84849;1324;22634;-76
2021/12/17 09:48:22;;;;;;;23.20;7.60;;;;;;;4.19;80.78;101658.08;84824;1320;22616;-76
2021/12/17 09:50:32;;;;;;;19.30;7.70;;;;;;;4.21;81.04;101654.47;84831;1327;24409;-77
2021/12/17 09:52:39;;;;;;;22.30;7.10;;;;;;;4.23;80.74;101655.70;84873;1324;22603;-75
2021/12/17 09:54:46;;;;;;;21.40;7.00;;;;;;;4.21;80.91;101654.82;84843;1326;22599;-77
2021/12/17 09:56:56;;;;;;;19.90;6.40;;;;;;;4.23;80.88;101659.16;84867;1324;23914;-76
2021/12/17 09:59:02;;;;;;;17.20;5.90;;;;;;;4.27;80.61;101649.16;84861;1324;22613;-75
2021/12/17 10:01:13;;;;;;;15.50;4.80;;;;;;;4.32;80.32;101646.79;84826;1328;22802;-77
2021/12/17 10:03:20;;;;;;;11.80;5.70;;;;;;;4.38;80.60;101640.46;84795;1325;22841;-70
2021/12/17 10:05:28;;;;;;;16.30;6.20;;;;;;;4.45;80.64;101639.98;84811;1323;22666;-69
2021/12/17 10:07:36;;;;;;;17.90;6.40;;;;;;;4.51;80.61;101636.40;84847;1325;22597;-76
2021/12/17 10:09:47;;;;;;;14.80;7.00;;;;;;;4.55;80.43;101640.41;84845;1324;22601;-76
2021/12/17 10:12:08;;;;;;;13.20;5.80;;;;;;;4.58;80.22;101639.05;84808;1329;22617;-70
2021/12/17 10:14:23;;;;;;;19.30;7.40;;;;;;;4.61;80.14;101638.36;84832;1325;23920;-69
2021/12/17 10:16:30;;;;;;;18.90;6.50;;;;;;;4.64;79.81;101639.42;84840;1324;22662;-70
2021/12/17 10:18:39;;;;;;;17.80;7.30;;;;;;;4.70;80.16;101647.23;84852;1325;25341;-69
2021/12/17 10:20:58;;;;;;;18.50;8.10;;;;;;;4.78;79.71;101647.81;84814;1324;22606;-69
2021/12/17 10:23:06;;;;;;;14.90;6.70;;;;;;;4.84;79.58;101644.91;84866;1325;22591;-74
2021/12/17 10:25:13;;;;;;;14.80;5.20;;;;;;;4.89;79.50;101645.64;84832;1322;22641;-69
2021/12/17 10:27:25;;;;;;;16.30;6.30;;;;;;;4.94;79.35;101643.93;84887;1324;25280;-75
2021/12/17 10:29:31;;;;;;;15.60;4.90;;;;;;;4.95;79.13;101648.60;84862;1324;22591;-76
2021/12/17 10:31:41;;;;;;;16.80;5.90;;;;;;;4.96;78.94;101647.39;84853;1322;22651;-76
2021/12/17 10:33:53;;;;;;;12.70;4.90;;;;;;;4.99;78.83;101642.40;84840;1324;24235;-75
2021/12/17 10:36:03;;;;;;;19.10;5.80;;;;;;;5.01;78.78;101644.83;84850;1323;22616;-76
2021/12/17 10:38:15;;;;;;;14.20;5.90;;;;;;;5.05;78.82;101640.17;84825;1327;22609;-76
2021/12/17 10:40:32;;;;;;;14.10;5.90;;;;;;;5.06;78.84;101634.99;84858;1327;22605;-78
2021/12/17 10:42:41;;;;;;;14.30;5.90;;;;;;;5.05;78.56;101640.52;84841;1325;25620;-77
2021/12/17 10:45:10;;;;;;;10.90;4.80;;;;;;;5.07;78.39;101637.08;84860;1325;22625;-76
2021/12/17 10:47:32;;;;;;;19.10;5.40;;;;;;;5.12;78.61;101631.57;84842;1325;26811;-69
2021/12/17 10:49:53;;;;;;;20.70;6.10;;;;;;;5.19;78.22;101630.40;84838;1325;22587;-69
2021/12/17 10:52:14;;;;;;;14.50;6.50;;;;;;;5.23;78.43;101632.15;84692;1327;22601;-76
2021/12/17 10:54:21;;;;;;;17.20;6.10;;;;;;;5.25;77.80;101623.66;84850;1324;24974;-75
2021/12/17 10:56:33;;;;;;;17.30;6.70;;;;;;;5.25;77.85;101621.06;84874;1320;22600;-76
2021/12/17 10:58:44;;;;;;;13.20;5.80;;;;;;;5.22;77.69;101622.11;84851;1324;22834;-75
2021/12/17 11:00:58;;;;;;;17.10;5.80;;;;;;;5.19;77.71;101617.42;84858;1324;22694;-76
2021/12/17 11:03:07;;;;;;;11.90;5.40;;;;;;;5.14;77.59;101620.00;84873;1324;22552;-69
2021/12/17 11:05:17;;;;;;;12.80;5.50;;;;;;;5.14;77.93;101622.08;84862;1324;25512;-69
2021/12/17 11:07:25;;;;;;;;;;;;;;;5.21;77.89;101617.60;84798;1321;22568;-69
2021/12/17 11:09:40;;;;;;;13.70;5.30;;;;;;;5.25;77.74;101614.33;84881;1324;22599;-69
2021/12/17 11:11:50;;;;;;;14.00;4.70;;;;;;;5.29;77.67;101609.33;84818;1325;22612;-70
2021/12/17 11:13:58;;;;;;;11.70;5.10;;;;;;;5.27;76.98;101607.07;84882;1324;22616;-70
2021/12/17 11:16:07;;;;;;;11.30;5.20;;;;;;;5.24;76.68;101607.76;84854;1327;25100;-69
2021/12/17 11:18:18;;;;;;;10.50;5.10;;;;;;;5.23;77.19;101604.11;84881;1324;22795;-74
2021/12/17 11:20:23;;;;;;;;;;;;;;;5.30;77.20;101599.11;84822;1322;22595;-75
2021/12/17 11:22:33;;;;;;;10.90;3.70;;;;;;;5.30;77.08;101597.04;84831;1324;22754;-75
2021/12/17 11:24:39;;;;;;;13.80;5.30;;;;;;;5.31;76.89;101595.82;84847;1324;24309;-75
2021/12/17 11:26:52;;;;;;;15.00;5.00;;;;;;;5.33;76.75;101600.52;84861;1325;22587;-69
2021/12/17 11:29:03;;;;;;;9.30;4.50;;;;;;;5.34;76.89;101610.90;84838;1322;22586;-76
2021/12/17 11:31:09;;;;;;;13.80;4.50;;;;;;;5.34;76.85;101608.30;83365;1326;1003379;-75
2021/12/17 11:33:17;;;;;;;11.50;4.50;;;;;;;5.35;76.97;101607.09;84835;1324;22584;-69
2021/12/17 11:35:27;;;;;;;10.00;4.20;;;;;;;5.36;77.06;101604.84;84847;1323;22597;-75
2021/12/17 11:37:33;;;;;;;11.30;3.80;;;;;;;5.41;76.67;101599.66;84871;1324;22587;-76
2021/12/17 11:39:43;;;;;;;11.00;3.20;;;;;;;5.44;76.29;101597.60;84852;1324;22754;-69
2021/12/17 11:41:53;;;;;;;13.90;4.60;;;;;;;5.46;76.16;101603.48;84812;1325;22667;-75
2021/12/17 11:44:00;;;;;;;9.20;3.90;;;;;;;5.45;76.10;101604.35;84850;1322;22674;-76
2021/12/17 11:46:08;;;;;;;11.20;4.80;;;;;;;5.43;75.64;101607.47;84841;1324;22625;-75
2021/12/17 11:48:18;;;;;;;10.70;4.30;;;;;;;5.40;75.77;101609.88;84778;1327;22715;-76
2021/12/17 11:50:28;;;;;;;13.50;3.30;;;;;;;5.34;75.70;101609.51;84859;1324;22587;-77
2021/12/17 11:52:46;;;;;;;11.00;4.00;;;;;;;5.30;75.63;101615.21;84852;1325;22593;-69
2021/12/17 11:54:56;;;;;;;9.20;4.00;;;;;;;5.26;75.74;101615.37;84845;1327;22758;-68
2021/12/17 11:57:08;;;;;;;9.50;3.60;;;;;;;5.22;76.17;101611.72;84805;1326;22691;-76
2021/12/17 11:59:35;;;;;;;13.60;4.00;;;;;;;5.17;76.20;101614.30;84868;1326;24241;-76
2021/12/17 12:01:59;;;;;;;9.40;4.70;;;;;;;5.11;75.80;101621.70;84878;1325;22780;-69
2021/12/17 12:04:36;;;;;;;8.60;3.50;;;;;;;5.07;76.14;101617.88;84839;1328;22929;-75
2021/12/17 12:06:42;;;;;;;7.10;3.20;;;;;;;5.07;76.22;101614.06;84861;1324;22626;-69
2021/12/17 12:08:50;;;;;;;7.90;3.10;;;;;;;5.07;75.85;101608.55;84837;1327;22802;-75
2021/12/17 12:11:15;;;;;;;13.40;5.30;;;;;;;5.07;76.05;101608.02;84771;1326;22832;-76
2021/12/17 12:16:04;;;;;;;9.20;4.30;;;;;;;5.13;76.16;101602.86;81983;1369;546102;-67
2021/12/17 12:18:13;;;;;;;7.10;3.30;;;;;;;5.10;76.09;101611.84;84272;1335;22627;-73
2021/12/17 12:20:49;;;;;;;11.20;4.10;;;;;;;5.08;76.13;101607.68;84273;1339;25529;-75
2021/12/17 12:23:17;;;;;;;8.50;3.90;;;;;;;5.04;76.04;101608.37;84309;1340;22613;-68